Terminal Aerodrome Forecast
Issued by NWS

Home | Current Version | Previous Version | Text Only | Print | Product List | Glossary On
Versions: 1 2 3 4 5 6 7 8 9 10 11 12 13 14
000
FTUS46 KLOX 300558
TAFWJF
TAF
KWJF 300558Z 3006/0106 24017G23KT P6SM SCT250
     FM301600 31015G25KT P6SM SCT250
     FM301900 33018G28KT P6SM FEW080 BKN120
     FM302100 33018G28KT P6SM VCTS SCT040CB BKN080
     FM010100 30015G25KT P6SM SCT080 SCT120
     FM010300 28010KT P6SM SCT080 SCT120=

USA.gov is the U.S. government's official web portal to all federal, state and local government web resources and services.